sensor_id;sensor_type;location;lat;lon;timestamp;temperature;humidity
16523;DHT22;19889;52.546;13.348;2023-03-01T00:00:40;3.00;99.90
16523;DHT22;19889;52.546;13.348;2023-03-01T00:03:12;3.00;99.90
16523;DHT22;19889;52.546;13.348;2023-03-01T00:05:43;4.10;99.90
16523;DHT22;19889;52.546;13.348;2023-03-01T00:08:10;3.10;99.90
16523;DHT22;19889;52.546;13.348;2023-03-01T00:10:39;3.10;99.90
16523;DHT22;19889;52.546;13.348;2023-03-01T00:13:06;3.00;99.90
16523;DHT22;19889;52.546;13.348;2023-03-01T00:15:33;3.00;99.90
16523;DHT22;19889;52.546;13.348;2023-03-01T00:18:00;3.00;99.90
16523;DHT22;19889;52.546;13.348;2023-03-01T00:20:27;2.70;99.90
16523;DHT22;19889;52.546;13.348;2023-03-01T00:22:54;2.90;99.90
16523;DHT22;19889;52.546;13.348;2023-03-01T00:25:21;2.70;99.90
16523;DHT22;19889;52.546;13.348;2023-03-01T00:27:49;2.90;99.90
16523;DHT22;19889;52.546;13.348;2023-03-01T00:30:17;2.80;99.90
16523;DHT22;19889;52.546;13.348;2023-03-01T00:32:44;2.80;99.90
16523;DHT22;19889;52.546;13.348;2023-03-01T00:35:10;2.80;99.90
16523;DHT22;19889;52.546;13.348;2023-03-01T00:37:37;3.10;99.90
16523;DHT22;19889;52.546;13.348;2023-03-01T00:40:07;2.70;99.90
16523;DHT22;19889;52.546;13.348;2023-03-01T00:42:35;2.70;99.90
16523;DHT22;19889;52.546;13.348;2023-03-01T00:45:06;2.70;99.90
16523;DHT22;19889;52.546;13.348;2023-03-01T00:47:34;2.70;99.90
16523;DHT22;19889;52.546;13.348;2023-03-01T00:50:01;2.50;99.90
16523;DHT22;19889;52.546;13.348;2023-03-01T00:52:28;2.40;99.90
16523;DHT22;19889;52.546;13.348;2023-03-01T00:54:55;2.40;99.90
16523;DHT22;19889;52.546;13.348;2023-03-01T00:57:23;2.80;99.90
16523;DHT22;19889;52.546;13.348;2023-03-01T00:59:50;2.60;99.90
16523;DHT22;19889;52.546;13.348;2023-03-01T01:02:19;2.50;99.90
16523;DHT22;19889;52.546;13.348;2023-03-01T01:04:46;2.60;99.90
16523;DHT22;19889;52.546;13.348;2023-03-01T01:07:14;2.60;99.90
16523;DHT22;19889;52.546;13.348;2023-03-01T01:09:41;2.60;99.90
16523;DHT22;19889;52.546;13.348;2023-03-01T01:12:08;2.60;99.90
16523;DHT22;19889;52.546;13.348;2023-03-01T01:14:35;2.60;99.90
16523;DHT22;19889;52.546;13.348;2023-03-01T01:17:03;2.60;99.90
16523;DHT22;19889;52.546;13.348;2023-03-01T01:19:31;2.60;99.90
16523;DHT22;19889;52.546;13.348;2023-03-01T01:21:58;2.70;99.90
16523;DHT22;19889;52.546;13.348;2023-03-01T01:24:25;2.40;99.90
16523;DHT22;19889;52.546;13.348;2023-03-01T01:26:52;2.50;99.90
16523;DHT22;19889;52.546;13.348;2023-03-01T01:29:19;2.50;99.90
16523;DHT22;19889;52.546;13.348;2023-03-01T01:31:46;2.50;99.90
16523;DHT22;19889;52.546;13.348;2023-03-01T01:34:15;2.60;99.90
16523;DHT22;19889;52.546;13.348;2023-03-01T01:36:44;2.50;99.90
16523;DHT22;19889;52.546;13.348;2023-03-01T01:39:14;2.60;99.90
16523;DHT22;19889;52.546;13.348;2023-03-01T01:41:41;2.50;99.90
16523;DHT22;19889;52.546;13.348;2023-03-01T01:44:18;2.40;99.90
16523;DHT22;19889;52.546;13.348;2023-03-01T01:46:49;2.40;99.90
16523;DHT22;19889;52.546;13.348;2023-03-01T01:49:22;2.30;99.90
16523;DHT22;19889;52.546;13.348;2023-03-01T01:51:55;2.30;99.90
16523;DHT22;19889;52.546;13.348;2023-03-01T01:54:26;3.90;99.90
16523;DHT22;19889;52.546;13.348;2023-03-01T01:56:57;2.30;99.90
16523;DHT22;19889;52.546;13.348;2023-03-01T01:59:26;2.30;99.90
16523;DHT22;19889;52.546;13.348;2023-03-01T02:01:54;2.30;99.90
16523;DHT22;19889;52.546;13.348;2023-03-01T02:04:21;2.20;99.90
16523;DHT22;19889;52.546;13.348;2023-03-01T02:06:55;2.40;99.90
16523;DHT22;19889;52.546;13.348;2023-03-01T02:09:24;2.60;99.90
16523;DHT22;19889;52.546;13.348;2023-03-01T02:11:52;2.40;99.90
16523;DHT22;19889;52.546;13.348;2023-03-01T02:14:20;2.50;99.90
16523;DHT22;19889;52.546;13.348;2023-03-01T02:16:47;2.30;99.90
16523;DHT22;19889;52.546;13.348;2023-03-01T02:19:24;2.40;99.90
16523;DHT22;19889;52.546;13.348;2023-03-01T02:21:59;2.20;99.90
16523;DHT22;19889;52.546;13.348;2023-03-01T02:24:34;2.40;99.90
16523;DHT22;19889;52.546;13.348;2023-03-01T02:27:06;2.60;99.90
16523;DHT22;19889;52.546;13.348;2023-03-01T02:29:34;2.20;99.90
16523;DHT22;19889;52.546;13.348;2023-03-01T02:32:03;2.20;99.90
16523;DHT22;19889;52.546;13.348;2023-03-01T02:34:31;2.30;99.90
16523;DHT22;19889;52.546;13.348;2023-03-01T02:37:01;2.20;99.90
16523;DHT22;19889;52.546;13.348;2023-03-01T02:39:33;2.50;99.90
16523;DHT22;19889;52.546;13.348;2023-03-01T02:42:04;2.30;99.90
16523;DHT22;19889;52.546;13.348;2023-03-01T02:44:31;2.20;99.90
16523;DHT22;19889;52.546;13.348;2023-03-01T02:47:01;2.30;99.90
16523;DHT22;19889;52.546;13.348;2023-03-01T02:49:31;2.50;99.90
16523;DHT22;19889;52.546;13.348;2023-03-01T02:52:21;2.10;99.90
16523;DHT22;19889;52.546;13.348;2023-03-01T02:54:53;2.20;99.90
16523;DHT22;19889;52.546;13.348;2023-03-01T02:57:23;2.30;99.90
16523;DHT22;19889;52.546;13.348;2023-03-01T02:59:54;2.20;99.90
16523;DHT22;19889;52.546;13.348;2023-03-01T03:02:24;2.30;99.90
16523;DHT22;19889;52.546;13.348;2023-03-01T03:05:09;2.00;99.90
16523;DHT22;19889;52.546;13.348;2023-03-01T03:07:38;2.10;99.90
16523;DHT22;19889;52.546;13.348;2023-03-01T03:10:09;2.00;99.90
16523;DHT22;19889;52.546;13.348;2023-03-01T03:12:37;2.00;99.90
16523;DHT22;19889;52.546;13.348;2023-03-01T03:15:06;2.40;99.90
16523;DHT22;19889;52.546;13.348;2023-03-01T03:17:36;2.50;99.90
16523;DHT22;19889;52.546;13.348;2023-03-01T03:20:05;2.30;99.90
16523;DHT22;19889;52.546;13.348;2023-03-01T03:22:37;2.00;99.90
16523;DHT22;19889;52.546;13.348;2023-03-01T03:25:05;2.00;99.90
16523;DHT22;19889;52.546;13.348;2023-03-01T03:27:36;2.00;99.90
16523;DHT22;19889;52.546;13.348;2023-03-01T03:30:04;2.00;99.90
16523;DHT22;19889;52.546;13.348;2023-03-01T03:32:36;2.00;99.90
16523;DHT22;19889;52.546;13.348;2023-03-01T03:35:03;2.00;99.90
16523;DHT22;19889;52.546;13.348;2023-03-01T03:37:35;2.00;99.90
16523;DHT22;19889;52.546;13.348;2023-03-01T03:40:20;2.10;99.90
16523;DHT22;19889;52.546;13.348;2023-03-01T03:42:47;2.30;99.90
16523;DHT22;19889;52.546;13.348;2023-03-01T03:45:14;2.00;99.90
16523;DHT22;19889;52.546;13.348;2023-03-01T03:47:43;1.80;99.90
16523;DHT22;19889;52.546;13.348;2023-03-01T03:50:11;1.80;99.90
16523;DHT22;19889;52.546;13.348;2023-03-01T03:52:38;2.00;99.90
16523;DHT22;19889;52.546;13.348;2023-03-01T03:55:07;2.00;99.90
16523;DHT22;19889;52.546;13.348;2023-03-01T03:57:37;1.80;99.90
16523;DHT22;19889;52.546;13.348;2023-03-01T04:00:06;1.90;99.90
16523;DHT22;19889;52.546;13.348;2023-03-01T04:02:38;1.80;99.90
16523;DHT22;19889;52.546;13.348;2023-03-01T04:05:09;1.80;99.90
16523;DHT22;19889;52.546;13.348;2023-03-01T04:07:36;2.00;99.90
16523;DHT22;19889;52.546;13.348;2023-03-01T04:10:05;1.90;99.90
16523;DHT22;19889;52.546;13.348;2023-03-01T04:12:32;1.80;99.90
16523;DHT22;19889;52.546;13.348;2023-03-01T04:15:00;1.70;99.90
16523;DHT22;19889;52.546;13.348;2023-03-01T04:17:29;1.80;99.90
16523;DHT22;19889;52.546;13.348;2023-03-01T04:19:56;2.00;99.90
16523;DHT22;19889;52.546;13.348;2023-03-01T04:22:24;1.60;99.90
16523;DHT22;19889;52.546;13.348;2023-03-01T04:24:55;1.60;99.90
16523;DHT22;19889;52.546;13.348;2023-03-01T04:27:22;1.70;99.90
16523;DHT22;19889;52.546;13.348;2023-03-01T04:29:49;1.80;99.90
16523;DHT22;19889;52.546;13.348;2023-03-01T04:32:16;1.70;99.90
16523;DHT22;19889;52.546;13.348;2023-03-01T04:34:44;1.80;99.90
16523;DHT22;19889;52.546;13.348;2023-03-01T04:37:11;1.70;99.90
16523;DHT22;19889;52.546;13.348;2023-03-01T04:39:39;2.00;99.90
16523;DHT22;19889;52.546;13.348;2023-03-01T04:42:11;1.90;99.90
16523;DHT22;19889;52.546;13.348;2023-03-01T04:44:38;1.90;99.90
16523;DHT22;19889;52.546;13.348;2023-03-01T04:47:05;1.80;99.90
16523;DHT22;19889;52.546;13.348;2023-03-01T04:49:32;1.50;99.90
16523;DHT22;19889;52.546;13.348;2023-03-01T04:51:59;1.60;99.90
16523;DHT22;19889;52.546;13.348;2023-03-01T04:54:27;2.50;99.90
16523;DHT22;19889;52.546;13.348;2023-03-01T04:56:55;1.60;99.90
16523;DHT22;19889;52.546;13.348;2023-03-01T04:59:22;1.90;99.90
16523;DHT22;19889;52.546;13.348;2023-03-01T05:01:49;1.60;99.90
16523;DHT22;19889;52.546;13.348;2023-03-01T05:04:17;1.60;99.90
16523;DHT22;19889;52.546;13.348;2023-03-01T05:06:44;1.80;99.90
16523;DHT22;19889;52.546;13.348;2023-03-01T05:09:11;1.90;99.90
16523;DHT22;19889;52.546;13.348;2023-03-01T05:11:38;1.50;99.90
16523;DHT22;19889;52.546;13.348;2023-03-01T05:14:07;1.50;99.90
16523;DHT22;19889;52.546;13.348;2023-03-01T05:16:35;1.90;99.90
16523;DHT22;19889;52.546;13.348;2023-03-01T05:19:02;1.50;99.90
16523;DHT22;19889;52.546;13.348;2023-03-01T05:21:37;1.50;99.90
16523;DHT22;19889;52.546;13.348;2023-03-01T05:24:24;1.50;99.90
16523;DHT22;19889;52.546;13.348;2023-03-01T05:26:51;1.60;99.90
16523;DHT22;19889;52.546;13.348;2023-03-01T05:29:20;1.50;99.90
16523;DHT22;19889;52.546;13.348;2023-03-01T05:31:51;1.60;99.90
16523;DHT22;19889;52.546;13.348;2023-03-01T05:34:19;1.50;99.90
16523;DHT22;19889;52.546;13.348;2023-03-01T05:36:48;1.70;99.90
16523;DHT22;19889;52.546;13.348;2023-03-01T05:39:19;2.20;99.90
16523;DHT22;19889;52.546;13.348;2023-03-01T05:41:48;1.20;99.90
16523;DHT22;19889;52.546;13.348;2023-03-01T05:44:15;1.70;99.90
16523;DHT22;19889;52.546;13.348;2023-03-01T05:46:43;1.50;99.90
16523;DHT22;19889;52.546;13.348;2023-03-01T05:49:10;1.60;99.90
16523;DHT22;19889;52.546;13.348;2023-03-01T05:51:39;1.50;99.90
16523;DHT22;19889;52.546;13.348;2023-03-01T05:54:07;1.40;99.90
16523;DHT22;19889;52.546;13.348;2023-03-01T05:56:34;1.60;99.90
16523;DHT22;19889;52.546;13.348;2023-03-01T05:59:01;1.60;99.90
16523;DHT22;19889;52.546;13.348;2023-03-01T06:01:29;1.30;99.90
16523;DHT22;19889;52.546;13.348;2023-03-01T06:03:57;1.70;99.90
16523;DHT22;19889;52.546;13.348;2023-03-01T06:06:24;1.50;99.90
16523;DHT22;19889;52.546;13.348;2023-03-01T06:08:52;1.70;99.90
16523;DHT22;19889;52.546;13.348;2023-03-01T06:11:19;1.50;99.90
16523;DHT22;19889;52.546;13.348;2023-03-01T06:13:46;1.60;99.90
16523;DHT22;19889;52.546;13.348;2023-03-01T06:16:13;1.40;99.90
16523;DHT22;19889;52.546;13.348;2023-03-01T06:18:41;1.50;99.90
16523;DHT22;19889;52.546;13.348;2023-03-01T06:21:09;1.40;99.90
16523;DHT22;19889;52.546;13.348;2023-03-01T06:23:36;1.50;99.90
16523;DHT22;19889;52.546;13.348;2023-03-01T06:26:06;1.40;99.90
16523;DHT22;19889;52.546;13.348;2023-03-01T06:28:33;1.40;99.90
16523;DHT22;19889;52.546;13.348;2023-03-01T06:31:00;1.50;99.90
16523;DHT22;19889;52.546;13.348;2023-03-01T06:33:26;1.70;99.90
16523;DHT22;19889;52.546;13.348;2023-03-01T06:35:54;1.40;99.90
16523;DHT22;19889;52.546;13.348;2023-03-01T06:38:23;1.60;99.90
16523;DHT22;19889;52.546;13.348;2023-03-01T06:40:53;1.40;99.90
16523;DHT22;19889;52.546;13.348;2023-03-01T06:43:22;2.30;99.90
16523;DHT22;19889;52.546;13.348;2023-03-01T06:45:50;1.40;99.90
16523;DHT22;19889;52.546;13.348;2023-03-01T06:48:16;1.50;99.90
16523;DHT22;19889;52.546;13.348;2023-03-01T06:50:44;1.90;99.90
16523;DHT22;19889;52.546;13.348;2023-03-01T06:53:11;1.40;99.90
16523;DHT22;19889;52.546;13.348;2023-03-01T06:55:39;1.90;99.90
16523;DHT22;19889;52.546;13.348;2023-03-01T06:58:06;1.60;99.90
16523;DHT22;19889;52.546;13.348;2023-03-01T07:00:33;1.70;99.90
16523;DHT22;19889;52.546;13.348;2023-03-01T07:03:00;2.20;99.90
16523;DHT22;19889;52.546;13.348;2023-03-01T07:05:28;1.80;99.90
16523;DHT22;19889;52.546;13.348;2023-03-01T07:07:56;2.40;99.90
16523;DHT22;19889;52.546;13.348;2023-03-01T07:10:23;1.80;99.90
16523;DHT22;19889;52.546;13.348;2023-03-01T07:12:54;1.60;99.90
16523;DHT22;19889;52.546;13.348;2023-03-01T07:15:21;1.70;99.90
16523;DHT22;19889;52.546;13.348;2023-03-01T07:17:48;1.80;99.90
16523;DHT22;19889;52.546;13.348;2023-03-01T07:20:16;1.70;99.90
16523;DHT22;19889;52.546;13.348;2023-03-01T07:22:43;1.80;99.90
16523;DHT22;19889;52.546;13.348;2023-03-01T07:25:10;1.80;99.90
16523;DHT22;19889;52.546;13.348;2023-03-01T07:27:37;2.00;99.90
16523;DHT22;19889;52.546;13.348;2023-03-01T07:30:07;2.10;99.90
16523;DHT22;19889;52.546;13.348;2023-03-01T07:32:34;1.90;99.90
16523;DHT22;19889;52.546;13.348;2023-03-01T07:35:01;2.10;99.90
16523;DHT22;19889;52.546;13.348;2023-03-01T07:37:28;1.90;99.90
16523;DHT22;19889;52.546;13.348;2023-03-01T07:39:55;2.60;99.90
16523;DHT22;19889;52.546;13.348;2023-03-01T07:42:23;2.20;99.90
16523;DHT22;19889;52.546;13.348;2023-03-01T07:44:50;2.40;99.90
16523;DHT22;19889;52.546;13.348;2023-03-01T07:47:18;2.50;99.90
16523;DHT22;19889;52.546;13.348;2023-03-01T07:49:45;2.20;99.90
16523;DHT22;19889;52.546;13.348;2023-03-01T07:52:12;2.20;99.90
16523;DHT22;19889;52.546;13.348;2023-03-01T07:54:42;2.60;99.90
16523;DHT22;19889;52.546;13.348;2023-03-01T07:57:09;2.30;99.90
16523;DHT22;19889;52.546;13.348;2023-03-01T07:59:36;2.40;99.90
16523;DHT22;19889;52.546;13.348;2023-03-01T08:02:03;2.40;99.90
16523;DHT22;19889;52.546;13.348;2023-03-01T08:04:32;2.40;99.90
16523;DHT22;19889;52.546;13.348;2023-03-01T08:06:59;2.60;99.90
16523;DHT22;19889;52.546;13.348;2023-03-01T08:09:26;3.00;99.90
16523;DHT22;19889;52.546;13.348;2023-03-01T08:11:53;3.20;99.90
16523;DHT22;19889;52.546;13.348;2023-03-01T08:14:21;2.80;99.90
16523;DHT22;19889;52.546;13.348;2023-03-01T08:16:49;2.90;99.90
16523;DHT22;19889;52.546;13.348;2023-03-01T08:19:16;3.10;99.90
16523;DHT22;19889;52.546;13.348;2023-03-01T08:21:45;3.20;99.90
16523;DHT22;19889;52.546;13.348;2023-03-01T08:24:12;3.50;99.90
16523;DHT22;19889;52.546;13.348;2023-03-01T08:26:39;3.70;99.90
16523;DHT22;19889;52.546;13.348;2023-03-01T08:29:06;4.00;99.90
16523;DHT22;19889;52.546;13.348;2023-03-01T08:31:35;3.90;99.90
16523;DHT22;19889;52.546;13.348;2023-03-01T08:34:05;4.30;99.90
16523;DHT22;19889;52.546;13.348;2023-03-01T08:36:36;4.50;99.90
16523;DHT22;19889;52.546;13.348;2023-03-01T08:39:05;5.40;99.90
16523;DHT22;19889;52.546;13.348;2023-03-01T08:41:32;5.10;99.90
16523;DHT22;19889;52.546;13.348;2023-03-01T08:43:59;5.60;99.90
16523;DHT22;19889;52.546;13.348;2023-03-01T08:46:27;5.80;99.90
16523;DHT22;19889;52.546;13.348;2023-03-01T08:48:54;5.70;99.90
16523;DHT22;19889;52.546;13.348;2023-03-01T08:51:21;5.80;99.90
16523;DHT22;19889;52.546;13.348;2023-03-01T08:53:49;5.80;99.90
16523;DHT22;19889;52.546;13.348;2023-03-01T08:56:18;5.60;99.90
16523;DHT22;19889;52.546;13.348;2023-03-01T08:58:46;5.70;99.90
16523;DHT22;19889;52.546;13.348;2023-03-01T09:01:15;5.50;99.90
16523;DHT22;19889;52.546;13.348;2023-03-01T09:03:43;5.40;99.90
16523;DHT22;19889;52.546;13.348;2023-03-01T09:06:11;5.30;99.90
16523;DHT22;19889;52.546;13.348;2023-03-01T09:08:39;5.30;99.90
16523;DHT22;19889;52.546;13.348;2023-03-01T09:11:08;5.60;99.90
16523;DHT22;19889;52.546;13.348;2023-03-01T09:13:37;5.10;99.90
16523;DHT22;19889;52.546;13.348;2023-03-01T09:16:08;6.20;99.90
16523;DHT22;19889;52.546;13.348;2023-03-01T09:18:35;5.20;99.90
16523;DHT22;19889;52.546;13.348;2023-03-01T09:21:03;5.20;99.90
16523;DHT22;19889;52.546;13.348;2023-03-01T09:23:33;5.20;99.90
16523;DHT22;19889;52.546;13.348;2023-03-01T09:26:02;5.30;99.90
16523;DHT22;19889;52.546;13.348;2023-03-01T09:28:29;4.90;99.90
16523;DHT22;19889;52.546;13.348;2023-03-01T09:30:59;5.10;99.90
16523;DHT22;19889;52.546;13.348;2023-03-01T09:33:28;5.00;99.90
16523;DHT22;19889;52.546;13.348;2023-03-01T09:35:58;5.50;99.90
16523;DHT22;19889;52.546;13.348;2023-03-01T09:38:25;4.70;99.90
16523;DHT22;19889;52.546;13.348;2023-03-01T09:40:52;4.90;99.90
16523;DHT22;19889;52.546;13.348;2023-03-01T09:43:25;4.80;99.90
16523;DHT22;19889;52.546;13.348;2023-03-01T09:46:02;4.80;99.90
16523;DHT22;19889;52.546;13.348;2023-03-01T09:48:36;5.40;99.90
16523;DHT22;19889;52.546;13.348;2023-03-01T09:51:07;4.30;99.90
16523;DHT22;19889;52.546;13.348;2023-03-01T09:53:35;5.50;99.90
16523;DHT22;19889;52.546;13.348;2023-03-01T09:56:05;4.80;99.90
16523;DHT22;19889;52.546;13.348;2023-03-01T09:58:44;4.90;99.90
16523;DHT22;19889;52.546;13.348;2023-03-01T10:01:29;4.90;99.90
16523;DHT22;19889;52.546;13.348;2023-03-01T10:04:05;5.10;99.90
16523;DHT22;19889;52.546;13.348;2023-03-01T10:06:38;5.30;99.90
16523;DHT22;19889;52.546;13.348;2023-03-01T10:09:11;5.10;99.90
16523;DHT22;19889;52.546;13.348;2023-03-01T10:11:42;5.10;99.90
16523;DHT22;19889;52.546;13.348;2023-03-01T10:14:18;5.00;99.90
16523;DHT22;19889;52.546;13.348;2023-03-01T10:16:54;5.00;99.90
16523;DHT22;19889;52.546;13.348;2023-03-01T10:19:28;5.60;99.90
16523;DHT22;19889;52.546;13.348;2023-03-01T10:22:00;4.80;99.90
16523;DHT22;19889;52.546;13.348;2023-03-01T10:24:33;5.40;99.90
16523;DHT22;19889;52.546;13.348;2023-03-01T10:27:04;5.40;99.90
16523;DHT22;19889;52.546;13.348;2023-03-01T10:29:39;5.90;99.90
16523;DHT22;19889;52.546;13.348;2023-03-01T10:32:10;5.60;99.90
16523;DHT22;19889;52.546;13.348;2023-03-01T10:34:37;5.40;99.90
16523;DHT22;19889;52.546;13.348;2023-03-01T10:37:10;5.10;99.90
16523;DHT22;19889;52.546;13.348;2023-03-01T10:39:55;5.40;99.90
16523;DHT22;19889;52.546;13.348;2023-03-01T10:42:26;4.60;99.90
16523;DHT22;19889;52.546;13.348;2023-03-01T10:44:54;5.20;99.90
16523;DHT22;19889;52.546;13.348;2023-03-01T10:47:24;5.30;99.90
16523;DHT22;19889;52.546;13.348;2023-03-01T10:49:55;5.20;99.90
16523;DHT22;19889;52.546;13.348;2023-03-01T10:52:24;6.20;99.90
16523;DHT22;19889;52.546;13.348;2023-03-01T10:54:54;5.20;99.90
16523;DHT22;19889;52.546;13.348;2023-03-01T10:57:29;4.90;99.90
16523;DHT22;19889;52.546;13.348;2023-03-01T11:00:15;5.30;99.90
16523;DHT22;19889;52.546;13.348;2023-03-01T11:02:49;5.30;99.90
16523;DHT22;19889;52.546;13.348;2023-03-01T11:05:22;5.60;99.90
16523;DHT22;19889;52.546;13.348;2023-03-01T11:07:52;5.50;99.90
16523;DHT22;19889;52.546;13.348;2023-03-01T11:10:22;5.50;99.90
16523;DHT22;19889;52.546;13.348;2023-03-01T11:12:50;5.60;99.90
16523;DHT22;19889;52.546;13.348;2023-03-01T11:15:23;6.10;99.90
16523;DHT22;19889;52.546;13.348;2023-03-01T11:17:52;5.70;99.90
16523;DHT22;19889;52.546;13.348;2023-03-01T11:20:25;6.20;99.90
16523;DHT22;19889;52.546;13.348;2023-03-01T11:22:55;5.70;99.90
16523;DHT22;19889;52.546;13.348;2023-03-01T11:25:26;5.70;99.90
16523;DHT22;19889;52.546;13.348;2023-03-01T11:27:54;5.70;99.90
16523;DHT22;19889;52.546;13.348;2023-03-01T11:30:25;6.30;99.90
16523;DHT22;19889;52.546;13.348;2023-03-01T11:33:05;6.10;99.90
16523;DHT22;19889;52.546;13.348;2023-03-01T11:35:36;6.30;99.90
16523;DHT22;19889;52.546;13.348;2023-03-01T11:38:15;6.20;99.90
16523;DHT22;19889;52.546;13.348;2023-03-01T11:40:46;6.00;99.90
16523;DHT22;19889;52.546;13.348;2023-03-01T11:43:19;5.90;99.90
16523;DHT22;19889;52.546;13.348;2023-03-01T11:46:28;6.30;99.90
16523;DHT22;19889;52.546;13.348;2023-03-01T11:49:14;5.70;99.90
16523;DHT22;19889;52.546;13.348;2023-03-01T11:51:49;5.80;99.90
16523;DHT22;19889;52.546;13.348;2023-03-01T11:54:30;6.20;99.90
16523;DHT22;19889;52.546;13.348;2023-03-01T11:57:06;6.20;99.90
16523;DHT22;19889;52.546;13.348;2023-03-01T11:59:59;5.80;99.90
16523;DHT22;19889;52.546;13.348;2023-03-01T12:02:45;6.20;99.90
16523;DHT22;19889;52.546;13.348;2023-03-01T12:05:28;5.90;99.90
16523;DHT22;19889;52.546;13.348;2023-03-01T12:08:05;5.90;99.90
16523;DHT22;19889;52.546;13.348;2023-03-01T12:10:43;6.30;99.90
16523;DHT22;19889;52.546;13.348;2023-03-01T12:13:27;6.00;99.90
16523;DHT22;19889;52.546;13.348;2023-03-01T12:16:20;7.00;99.90
16523;DHT22;19889;52.546;13.348;2023-03-01T12:18:59;6.10;99.90
16523;DHT22;19889;52.546;13.348;2023-03-01T12:21:42;6.20;99.90
16523;DHT22;19889;52.546;13.348;2023-03-01T12:24:25;6.20;99.90
16523;DHT22;19889;52.546;13.348;2023-03-01T12:27:07;6.20;99.90
16523;DHT22;19889;52.546;13.348;2023-03-01T12:29:40;6.50;99.90
16523;DHT22;19889;52.546;13.348;2023-03-01T12:32:41;6.50;99.90
16523;DHT22;19889;52.546;13.348;2023-03-01T12:35:31;6.20;99.90
16523;DHT22;19889;52.546;13.348;2023-03-01T12:38:17;6.40;99.90
16523;DHT22;19889;52.546;13.348;2023-03-01T12:41:11;6.90;99.90
16523;DHT22;19889;52.546;13.348;2023-03-01T12:43:51;6.30;99.90
16523;DHT22;19889;52.546;13.348;2023-03-01T12:46:32;6.30;99.90
16523;DHT22;19889;52.546;13.348;2023-03-01T12:49:08;6.80;99.90
16523;DHT22;19889;52.546;13.348;2023-03-01T12:51:38;6.40;99.90
16523;DHT22;19889;52.546;13.348;2023-03-01T12:54:15;6.90;99.90
16523;DHT22;19889;52.546;13.348;2023-03-01T12:56:42;6.40;99.90
16523;DHT22;19889;52.546;13.348;2023-03-01T12:59:19;6.50;99.90
16523;DHT22;19889;52.546;13.348;2023-03-01T13:01:53;6.40;99.90
16523;DHT22;19889;52.546;13.348;2023-03-01T13:04:39;6.70;99.90
16523;DHT22;19889;52.546;13.348;2023-03-01T13:07:16;7.80;99.90
16523;DHT22;19889;52.546;13.348;2023-03-01T13:09:50;7.10;99.90
16523;DHT22;19889;52.546;13.348;2023-03-01T13:12:50;6.50;99.90
16523;DHT22;19889;52.546;13.348;2023-03-01T13:15:32;6.40;99.90
16523;DHT22;19889;52.546;13.348;2023-03-01T13:18:00;6.50;99.90
16523;DHT22;19889;52.546;13.348;2023-03-01T13:20:32;6.90;99.90
16523;DHT22;19889;52.546;13.348;2023-03-01T13:23:24;6.80;99.90
16523;DHT22;19889;52.546;13.348;2023-03-01T13:26:08;6.70;99.90
16523;DHT22;19889;52.546;13.348;2023-03-01T13:31:56;7.10;99.90
16523;DHT22;19889;52.546;13.348;2023-03-01T13:34:54;6.90;99.90
16523;DHT22;19889;52.546;13.348;2023-03-01T13:37:24;7.20;99.90
16523;DHT22;19889;52.546;13.348;2023-03-01T13:39:55;7.20;99.90
16523;DHT22;19889;52.546;13.348;2023-03-01T13:42:43;6.90;99.90
16523;DHT22;19889;52.546;13.348;2023-03-01T13:45:32;7.50;99.90
16523;DHT22;19889;52.546;13.348;2023-03-01T13:48:03;6.70;99.90
16523;DHT22;19889;52.546;13.348;2023-03-01T13:50:38;6.80;99.90
16523;DHT22;19889;52.546;13.348;2023-03-01T13:53:14;6.90;99.90
16523;DHT22;19889;52.546;13.348;2023-03-01T13:55:45;6.90;99.90
16523;DHT22;19889;52.546;13.348;2023-03-01T13:58:21;7.30;99.90
16523;DHT22;19889;52.546;13.348;2023-03-01T14:00:55;7.00;99.90
16523;DHT22;19889;52.546;13.348;2023-03-01T14:03:23;7.50;99.90
16523;DHT22;19889;52.546;13.348;2023-03-01T14:06:03;7.00;99.90
16523;DHT22;19889;52.546;13.348;2023-03-01T14:08:34;7.00;99.90
16523;DHT22;19889;52.546;13.348;2023-03-01T14:11:21;7.00;99.90
16523;DHT22;19889;52.546;13.348;2023-03-01T14:14:08;7.10;99.90
16523;DHT22;19889;52.546;13.348;2023-03-01T14:16:44;7.10;99.90
16523;DHT22;19889;52.546;13.348;2023-03-01T14:19:16;7.30;99.90
16523;DHT22;19889;52.546;13.348;2023-03-01T14:21:44;7.20;99.90
16523;DHT22;19889;52.546;13.348;2023-03-01T14:24:18;7.40;99.90
16523;DHT22;19889;52.546;13.348;2023-03-01T14:26:45;7.40;99.90
16523;DHT22;19889;52.546;13.348;2023-03-01T14:29:35;7.20;99.90
16523;DHT22;19889;52.546;13.348;2023-03-01T14:32:10;7.10;99.90
16523;DHT22;19889;52.546;13.348;2023-03-01T14:34:43;7.10;99.90
16523;DHT22;19889;52.546;13.348;2023-03-01T14:37:20;7.20;99.90
16523;DHT22;19889;52.546;13.348;2023-03-01T14:39:47;7.20;99.90
16523;DHT22;19889;52.546;13.348;2023-03-01T14:42:15;7.70;99.90
16523;DHT22;19889;52.546;13.348;2023-03-01T14:44:46;7.40;99.90
16523;DHT22;19889;52.546;13.348;2023-03-01T14:47:20;7.50;99.90
16523;DHT22;19889;52.546;13.348;2023-03-01T14:49:56;7.40;99.90
16523;DHT22;19889;52.546;13.348;2023-03-01T14:52:28;7.20;99.90
16523;DHT22;19889;52.546;13.348;2023-03-01T14:54:59;7.70;99.90
16523;DHT22;19889;52.546;13.348;2023-03-01T14:57:28;7.20;99.90
16523;DHT22;19889;52.546;13.348;2023-03-01T14:59:59;7.30;99.90
16523;DHT22;19889;52.546;13.348;2023-03-01T15:02:30;7.30;99.90
16523;DHT22;19889;52.546;13.348;2023-03-01T15:05:01;7.00;99.90
16523;DHT22;19889;52.546;13.348;2023-03-01T15:07:31;7.00;99.90
16523;DHT22;19889;52.546;13.348;2023-03-01T15:09:59;7.30;99.90
16523;DHT22;19889;52.546;13.348;2023-03-01T15:12:38;7.00;99.90
16523;DHT22;19889;52.546;13.348;2023-03-01T15:15:34;7.30;99.90
16523;DHT22;19889;52.546;13.348;2023-03-01T15:18:03;7.30;99.90
16523;DHT22;19889;52.546;13.348;2023-03-01T15:20:33;7.20;99.90
16523;DHT22;19889;52.546;13.348;2023-03-01T15:23:03;7.90;99.90
16523;DHT22;19889;52.546;13.348;2023-03-01T15:25:31;7.60;99.90
16523;DHT22;19889;52.546;13.348;2023-03-01T15:28:01;7.60;99.90
16523;DHT22;19889;52.546;13.348;2023-03-01T15:30:33;7.40;99.90
16523;DHT22;19889;52.546;13.348;2023-03-01T15:33:30;7.50;99.90
16523;DHT22;19889;52.546;13.348;2023-03-01T15:35:58;7.40;99.90
16523;DHT22;19889;52.546;13.348;2023-03-01T15:38:27;7.40;99.90
16523;DHT22;19889;52.546;13.348;2023-03-01T15:40:55;7.30;99.90
16523;DHT22;19889;52.546;13.348;2023-03-01T15:43:42;7.40;99.90
16523;DHT22;19889;52.546;13.348;2023-03-01T15:46:20;7.40;99.90
16523;DHT22;19889;52.546;13.348;2023-03-01T15:48:51;7.40;99.90
16523;DHT22;19889;52.546;13.348;2023-03-01T15:51:26;7.40;99.90
16523;DHT22;19889;52.546;13.348;2023-03-01T15:53:55;7.40;99.90
16523;DHT22;19889;52.546;13.348;2023-03-01T15:56:23;7.40;99.90
16523;DHT22;19889;52.546;13.348;2023-03-01T15:58:50;7.60;99.90